sensor_id;sensor_type;location;lat;lon;timestamp;pressure;altitude;pressure_sealevel;temperature;humidity
80164;BME280;70071;55.130;61.268;2024-01-06T00:02:02;98210.72;;;-10.83;35.33
80164;BME280;70071;55.130;61.268;2024-01-06T00:04:28;98309.66;;;-10.24;35.50
80164;BME280;70071;55.130;61.268;2024-01-06T00:06:54;98222.28;;;-10.75;35.66
80164;BME280;70071;55.130;61.268;2024-01-06T00:09:21;98279.09;;;-10.46;35.63
80164;BME280;70071;55.130;61.268;2024-01-06T00:11:47;98220.31;;;-10.69;35.31
80164;BME280;70071;55.130;61.268;2024-01-06T00:14:13;98264.97;;;-10.37;35.13
80164;BME280;70071;55.130;61.268;2024-01-06T00:16:38;98308.25;;;-10.12;35.44
80164;BME280;70071;55.130;61.268;2024-01-06T00:19:04;98265.06;;;-10.39;34.65
80164;BME280;70071;55.130;61.268;2024-01-06T00:21:30;98270.97;;;-10.37;35.11
80164;BME280;70071;55.130;61.268;2024-01-06T00:23:56;98300.34;;;-10.26;35.00
80164;BME280;70071;55.130;61.268;2024-01-06T00:26:22;98280.66;;;-10.43;34.48
80164;BME280;70071;55.130;61.268;2024-01-06T00:28:50;98287.16;;;-10.36;36.19
80164;BME280;70071;55.130;61.268;2024-01-06T00:31:16;98239.38;;;-10.75;35.53
80164;BME280;70071;55.130;61.268;2024-01-06T00:33:45;98282.09;;;-10.57;35.32
80164;BME280;70071;55.130;61.268;2024-01-06T00:36:11;98248.38;;;-10.85;35.08
80164;BME280;70071;55.130;61.268;2024-01-06T00:38:37;98314.63;;;-10.38;35.21
80164;BME280;70071;55.130;61.268;2024-01-06T00:41:03;98281.22;;;-10.56;35.55
80164;BME280;70071;55.130;61.268;2024-01-06T00:43:29;98286.28;;;-10.54;35.13
80164;BME280;70071;55.130;61.268;2024-01-06T00:45:55;98250.63;;;-10.78;35.08
80164;BME280;70071;55.130;61.268;2024-01-06T00:48:21;98296.38;;;-10.51;34.95
80164;BME280;70071;55.130;61.268;2024-01-06T00:50:47;98292.19;;;-10.52;34.84
80164;BME280;70071;55.130;61.268;2024-01-06T00:53:13;98329.88;;;-10.35;34.80
80164;BME280;70071;55.130;61.268;2024-01-06T00:55:39;98332.34;;;-10.52;35.48
80164;BME280;70071;55.130;61.268;2024-01-06T00:58:05;98330.72;;;-10.53;35.21
80164;BME280;70071;55.130;61.268;2024-01-06T01:00:31;98301.94;;;-10.60;35.02
80164;BME280;70071;55.130;61.268;2024-01-06T01:02:57;98333.81;;;-10.47;34.50
80164;BME280;70071;55.130;61.268;2024-01-06T01:05:23;98322.75;;;-10.47;34.81
80164;BME280;70071;55.130;61.268;2024-01-06T01:07:49;98269.84;;;-10.88;34.38
80164;BME280;70071;55.130;61.268;2024-01-06T01:10:15;98259.81;;;-10.93;34.60
80164;BME280;70071;55.130;61.268;2024-01-06T01:12:41;98312.75;;;-10.53;34.91
80164;BME280;70071;55.130;61.268;2024-01-06T01:15:07;98320.91;;;-10.64;34.66
80164;BME280;70071;55.130;61.268;2024-01-06T01:17:33;98237.13;;;-11.21;34.88
80164;BME280;70071;55.130;61.268;2024-01-06T01:19:59;98308.56;;;-10.75;34.39
80164;BME280;70071;55.130;61.268;2024-01-06T01:22:25;98255.44;;;-11.10;34.81
80164;BME280;70071;55.130;61.268;2024-01-06T01:24:51;98208.44;;;-11.48;34.19
80164;BME280;70071;55.130;61.268;2024-01-06T01:27:17;98160.66;;;-11.68;34.50
80164;BME280;70071;55.130;61.268;2024-01-06T01:29:44;98310.59;;;-10.82;34.87
80164;BME280;70071;55.130;61.268;2024-01-06T01:32:10;98249.19;;;-11.23;34.53
80164;BME280;70071;55.130;61.268;2024-01-06T01:34:36;98228.13;;;-11.30;34.91
80164;BME280;70071;55.130;61.268;2024-01-06T01:37:02;98216.09;;;-11.48;34.91
80164;BME280;70071;55.130;61.268;2024-01-06T01:39:28;98320.13;;;-10.85;34.36
80164;BME280;70071;55.130;61.268;2024-01-06T01:41:55;98260.66;;;-11.32;34.37
80164;BME280;70071;55.130;61.268;2024-01-06T01:44:21;98268.25;;;-11.30;34.17
80164;BME280;70071;55.130;61.268;2024-01-06T01:46:47;98324.97;;;-10.98;34.11
80164;BME280;70071;55.130;61.268;2024-01-06T01:49:15;98292.38;;;-11.15;34.31
80164;BME280;70071;55.130;61.268;2024-01-06T01:51:42;98333.78;;;-10.09;33.47
80164;BME280;70071;55.130;61.268;2024-01-06T01:54:14;98316.34;;;-10.58;32.92
80164;BME280;70071;55.130;61.268;2024-01-06T01:56:44;98230.53;;;-11.27;33.05
80164;BME280;70071;55.130;61.268;2024-01-06T01:59:12;98330.88;;;-10.77;32.48
80164;BME280;70071;55.130;61.268;2024-01-06T02:01:42;98324.69;;;-10.92;32.79
80164;BME280;70071;55.130;61.268;2024-01-06T02:04:08;98371.28;;;-10.63;32.40
80164;BME280;70071;55.130;61.268;2024-01-06T02:06:35;98335.16;;;-10.38;32.49
80164;BME280;70071;55.130;61.268;2024-01-06T02:09:01;98327.31;;;-10.35;32.13
80164;BME280;70071;55.130;61.268;2024-01-06T02:11:27;98375.72;;;-9.91;31.61
80164;BME280;70071;55.130;61.268;2024-01-06T02:13:53;98320.94;;;-10.28;31.95
80164;BME280;70071;55.130;61.268;2024-01-06T02:16:19;98347.44;;;-10.27;31.43
80164;BME280;70071;55.130;61.268;2024-01-06T02:18:45;98333.91;;;-10.31;31.82
80164;BME280;70071;55.130;61.268;2024-01-06T02:21:11;98397.22;;;-9.93;31.10
80164;BME280;70071;55.130;61.268;2024-01-06T02:23:38;98381.75;;;-9.92;30.95
80164;BME280;70071;55.130;61.268;2024-01-06T02:26:04;98363.25;;;-9.98;31.24
80164;BME280;70071;55.130;61.268;2024-01-06T02:28:30;98362.31;;;-9.97;30.34
80164;BME280;70071;55.130;61.268;2024-01-06T02:30:57;98363.16;;;-10.33;30.39
80164;BME280;70071;55.130;61.268;2024-01-06T02:33:23;98374.38;;;-10.36;30.58
80164;BME280;70071;55.130;61.268;2024-01-06T02:35:50;98383.75;;;-10.35;30.83
80164;BME280;70071;55.130;61.268;2024-01-06T02:38:16;98354.88;;;-10.59;30.77
80164;BME280;70071;55.130;61.268;2024-01-06T02:40:42;98370.69;;;-10.49;31.01
80164;BME280;70071;55.130;61.268;2024-01-06T02:43:09;98348.63;;;-10.73;30.59
80164;BME280;70071;55.130;61.268;2024-01-06T02:45:35;98361.72;;;-10.60;30.78
80164;BME280;70071;55.130;61.268;2024-01-06T02:48:02;98331.22;;;-10.85;31.10
80164;BME280;70071;55.130;61.268;2024-01-06T02:50:28;98347.75;;;-10.72;31.00
80164;BME280;70071;55.130;61.268;2024-01-06T02:52:53;98309.44;;;-10.95;30.55
80164;BME280;70071;55.130;61.268;2024-01-06T02:55:19;98342.88;;;-10.78;30.95
80164;BME280;70071;55.130;61.268;2024-01-06T02:57:45;98414.28;;;-10.49;30.58
80164;BME280;70071;55.130;61.268;2024-01-06T03:00:11;98229.16;;;-11.54;30.83
80164;BME280;70071;55.130;61.268;2024-01-06T03:02:38;98276.56;;;-11.25;30.06
80164;BME280;70071;55.130;61.268;2024-01-06T03:05:08;98341.59;;;-10.88;29.88
80164;BME280;70071;55.130;61.268;2024-01-06T03:07:34;98411.78;;;-10.51;30.59
80164;BME280;70071;55.130;61.268;2024-01-06T03:10:00;98383.81;;;-10.76;29.82
80164;BME280;70071;55.130;61.268;2024-01-06T03:12:31;98374.59;;;-10.80;29.85
80164;BME280;70071;55.130;61.268;2024-01-06T03:14:57;98348.28;;;-11.04;30.28
80164;BME280;70071;55.130;61.268;2024-01-06T03:17:23;98346.81;;;-11.10;29.71
80164;BME280;70071;55.130;61.268;2024-01-06T03:19:49;98367.09;;;-11.05;30.13
80164;BME280;70071;55.130;61.268;2024-01-06T03:22:15;98400.88;;;-10.96;30.19
80164;BME280;70071;55.130;61.268;2024-01-06T03:24:41;98414.78;;;-10.81;30.17
80164;BME280;70071;55.130;61.268;2024-01-06T03:27:07;98399.13;;;-10.95;30.55
80164;BME280;70071;55.130;61.268;2024-01-06T03:29:34;98288.50;;;-11.65;30.71
80164;BME280;70071;55.130;61.268;2024-01-06T03:32:00;98400.28;;;-11.02;30.47
80164;BME280;70071;55.130;61.268;2024-01-06T03:34:26;98407.91;;;-11.01;30.20
80164;BME280;70071;55.130;61.268;2024-01-06T03:36:52;98400.59;;;-11.10;30.46
80164;BME280;70071;55.130;61.268;2024-01-06T03:39:18;98369.22;;;-11.36;30.30
80164;BME280;70071;55.130;61.268;2024-01-06T03:41:44;98462.63;;;-10.81;29.74
80164;BME280;70071;55.130;61.268;2024-01-06T03:44:10;98412.53;;;-11.09;29.39
80164;BME280;70071;55.130;61.268;2024-01-06T03:46:36;98453.22;;;-10.81;30.19
80164;BME280;70071;55.130;61.268;2024-01-06T03:49:02;98412.19;;;-11.22;30.15
80164;BME280;70071;55.130;61.268;2024-01-06T03:51:28;98463.75;;;-10.88;29.44
80164;BME280;70071;55.130;61.268;2024-01-06T03:53:54;98422.91;;;-11.12;29.66
80164;BME280;70071;55.130;61.268;2024-01-06T03:56:20;98451.53;;;-11.02;29.24
80164;BME280;70071;55.130;61.268;2024-01-06T03:58:47;98434.03;;;-11.13;30.04
80164;BME280;70071;55.130;61.268;2024-01-06T04:01:13;98405.66;;;-11.29;30.01
80164;BME280;70071;55.130;61.268;2024-01-06T04:03:39;98419.84;;;-11.22;29.54
80164;BME280;70071;55.130;61.268;2024-01-06T04:06:08;98419.28;;;-11.29;29.65
80164;BME280;70071;55.130;61.268;2024-01-06T04:08:36;98416.78;;;-11.30;28.60
80164;BME280;70071;55.130;61.268;2024-01-06T04:11:02;98412.41;;;-11.49;28.81
80164;BME280;70071;55.130;61.268;2024-01-06T04:13:28;98397.28;;;-11.55;28.36
80164;BME280;70071;55.130;61.268;2024-01-06T04:15:54;98419.84;;;-11.43;28.74
80164;BME280;70071;55.130;61.268;2024-01-06T04:18:20;98331.72;;;-12.00;28.39
80164;BME280;70071;55.130;61.268;2024-01-06T04:20:46;98391.63;;;-11.63;28.22
80164;BME280;70071;55.130;61.268;2024-01-06T04:23:12;98437.53;;;-11.36;28.88
80164;BME280;70071;55.130;61.268;2024-01-06T04:25:38;98399.06;;;-11.57;28.54
80164;BME280;70071;55.130;61.268;2024-01-06T04:28:04;98420.16;;;-11.50;28.87
80164;BME280;70071;55.130;61.268;2024-01-06T04:30:30;98486.25;;;-11.17;29.18
80164;BME280;70071;55.130;61.268;2024-01-06T04:32:56;98465.44;;;-11.30;28.98
80164;BME280;70071;55.130;61.268;2024-01-06T04:35:25;98446.56;;;-11.50;28.25
80164;BME280;70071;55.130;61.268;2024-01-06T04:37:51;98443.19;;;-11.50;29.19
80164;BME280;70071;55.130;61.268;2024-01-06T04:40:17;98429.31;;;-11.67;29.40
80164;BME280;70071;55.130;61.268;2024-01-06T04:42:44;98471.03;;;-13.10;30.27
80164;BME280;70071;55.130;61.268;2024-01-06T04:45:10;98475.41;;;-14.58;33.42
80164;BME280;70071;55.130;61.268;2024-01-06T04:47:36;98456.47;;;-15.12;35.05
80164;BME280;70071;55.130;61.268;2024-01-06T04:50:02;98465.22;;;-15.24;35.98
80164;BME280;70071;55.130;61.268;2024-01-06T04:52:30;98420.41;;;-15.65;35.99
80164;BME280;70071;55.130;61.268;2024-01-06T04:54:56;98425.53;;;-15.67;36.57
80164;BME280;70071;55.130;61.268;2024-01-06T04:57:22;98465.41;;;-15.31;36.20
80164;BME280;70071;55.130;61.268;2024-01-06T04:59:48;98460.09;;;-15.22;35.94
80164;BME280;70071;55.130;61.268;2024-01-06T05:02:14;98447.53;;;-15.28;35.99
80164;BME280;70071;55.130;61.268;2024-01-06T05:04:40;98476.88;;;-15.15;36.15
80164;BME280;70071;55.130;61.268;2024-01-06T05:07:06;98502.94;;;-15.05;36.30
80164;BME280;70071;55.130;61.268;2024-01-06T05:09:32;98381.59;;;-15.72;36.09
80164;BME280;70071;55.130;61.268;2024-01-06T05:11:58;98456.84;;;-15.29;36.11
80164;BME280;70071;55.130;61.268;2024-01-06T05:14:24;98478.56;;;-15.15;37.12
80164;BME280;70071;55.130;61.268;2024-01-06T05:16:50;98411.06;;;-15.63;36.47
80164;BME280;70071;55.130;61.268;2024-01-06T05:19:16;98444.63;;;-15.50;37.12
80164;BME280;70071;55.130;61.268;2024-01-06T05:21:47;98472.28;;;-15.37;37.06
80164;BME280;70071;55.130;61.268;2024-01-06T05:24:13;98478.38;;;-15.42;37.83
80164;BME280;70071;55.130;61.268;2024-01-06T05:26:39;98456.44;;;-14.16;36.05
80164;BME280;70071;55.130;61.268;2024-01-06T05:29:05;98470.28;;;-13.13;34.28
80164;BME280;70071;55.130;61.268;2024-01-06T05:31:31;98504.34;;;-12.61;32.65
80164;BME280;70071;55.130;61.268;2024-01-06T05:33:57;98499.25;;;-12.36;32.63
80164;BME280;70071;55.130;61.268;2024-01-06T05:36:23;98482.59;;;-12.47;31.43
80164;BME280;70071;55.130;61.268;2024-01-06T05:38:49;98455.47;;;-12.52;31.57
80164;BME280;70071;55.130;61.268;2024-01-06T05:41:15;98485.06;;;-12.21;32.22
80164;BME280;70071;55.130;61.268;2024-01-06T05:43:41;98503.97;;;-12.01;31.59
80164;BME280;70071;55.130;61.268;2024-01-06T05:46:08;98549.16;;;-11.54;31.15
80164;BME280;70071;55.130;61.268;2024-01-06T05:48:34;98548.09;;;-11.49;30.40
80164;BME280;70071;55.130;61.268;2024-01-06T05:51:00;98523.59;;;-11.56;31.14
80164;BME280;70071;55.130;61.268;2024-01-06T05:53:26;98493.25;;;-11.65;30.62
80164;BME280;70071;55.130;61.268;2024-01-06T05:55:52;98508.00;;;-11.50;31.44
80164;BME280;70071;55.130;61.268;2024-01-06T05:58:18;98547.75;;;-11.17;30.82
80164;BME280;70071;55.130;61.268;2024-01-06T06:00:44;98530.53;;;-11.14;30.91
80164;BME280;70071;55.130;61.268;2024-01-06T06:03:11;98480.09;;;-11.34;30.60
80164;BME280;70071;55.130;61.268;2024-01-06T06:05:38;98566.25;;;-10.66;30.81
80164;BME280;70071;55.130;61.268;2024-01-06T06:08:04;98462.13;;;-11.32;29.73
80164;BME280;70071;55.130;61.268;2024-01-06T06:10:30;98485.94;;;-11.08;30.29
80164;BME280;70071;55.130;61.268;2024-01-06T06:13:07;98453.16;;;-11.22;29.73
80164;BME280;70071;55.130;61.268;2024-01-06T06:15:36;98549.81;;;-10.61;30.31
80164;BME280;70071;55.130;61.268;2024-01-06T06:18:02;98550.91;;;-10.46;29.52
80164;BME280;70071;55.130;61.268;2024-01-06T06:20:28;98449.09;;;-11.05;29.96
80164;BME280;70071;55.130;61.268;2024-01-06T06:22:54;98582.47;;;-10.25;28.99
80164;BME280;70071;55.130;61.268;2024-01-06T06:25:20;98580.63;;;-10.21;29.08
80164;BME280;70071;55.130;61.268;2024-01-06T06:27:46;98563.69;;;-10.25;29.58
80164;BME280;70071;55.130;61.268;2024-01-06T06:30:12;98560.91;;;-10.21;29.79
80164;BME280;70071;55.130;61.268;2024-01-06T06:32:38;98466.41;;;-10.69;29.26
80164;BME280;70071;55.130;61.268;2024-01-06T06:35:05;98531.41;;;-10.31;29.95
80164;BME280;70071;55.130;61.268;2024-01-06T06:37:31;98534.31;;;-10.18;29.53
80164;BME280;70071;55.130;61.268;2024-01-06T06:39:57;98391.06;;;-11.06;29.04
80164;BME280;70071;55.130;61.268;2024-01-06T06:42:23;98501.72;;;-10.35;29.07
80164;BME280;70071;55.130;61.268;2024-01-06T06:44:49;98529.66;;;-10.10;29.04
80164;BME280;70071;55.130;61.268;2024-01-06T06:47:15;98505.13;;;-10.15;29.31
80164;BME280;70071;55.130;61.268;2024-01-06T06:49:41;98475.72;;;-10.27;29.37
80164;BME280;70071;55.130;61.268;2024-01-06T06:52:07;98530.06;;;-9.79;29.41
80164;BME280;70071;55.130;61.268;2024-01-06T06:54:33;98546.03;;;-9.73;29.44
80164;BME280;70071;55.130;61.268;2024-01-06T06:56:59;98502.94;;;-9.85;29.05
80164;BME280;70071;55.130;61.268;2024-01-06T06:59:25;98526.25;;;-9.71;28.78
80164;BME280;70071;55.130;61.268;2024-01-06T07:01:51;98561.94;;;-9.45;29.01
80164;BME280;70071;55.130;61.268;2024-01-06T07:04:17;98516.88;;;-9.72;29.32
80164;BME280;70071;55.130;61.268;2024-01-06T07:06:43;98519.38;;;-9.70;28.93
80164;BME280;70071;55.130;61.268;2024-01-06T07:09:09;98534.06;;;-9.53;29.66
80164;BME280;70071;55.130;61.268;2024-01-06T07:11:35;98498.44;;;-9.80;29.41
80164;BME280;70071;55.130;61.268;2024-01-06T07:14:01;98576.75;;;-9.32;29.33
80164;BME280;70071;55.130;61.268;2024-01-06T07:16:27;98488.53;;;-10.67;30.32
80164;BME280;70071;55.130;61.268;2024-01-06T07:18:53;98465.78;;;-12.55;33.52
80164;BME280;70071;55.130;61.268;2024-01-06T07:21:18;98505.59;;;-12.73;34.60
80164;BME280;70071;55.130;61.268;2024-01-06T07:23:44;98545.53;;;-12.70;35.64
80164;BME280;70071;55.130;61.268;2024-01-06T07:26:10;98587.19;;;-12.41;36.37
80164;BME280;70071;55.130;61.268;2024-01-06T07:28:36;98525.44;;;-12.81;36.16
80164;BME280;70071;55.130;61.268;2024-01-06T07:31:02;98586.38;;;-12.43;36.99
80164;BME280;70071;55.130;61.268;2024-01-06T07:33:30;98581.38;;;-12.46;37.39
80164;BME280;70071;55.130;61.268;2024-01-06T07:35:56;98558.22;;;-12.67;37.02
80164;BME280;70071;55.130;61.268;2024-01-06T07:38:22;98583.16;;;-12.48;37.38
80164;BME280;70071;55.130;61.268;2024-01-06T07:40:48;98572.94;;;-12.48;37.85
80164;BME280;70071;55.130;61.268;2024-01-06T07:43:14;98490.34;;;-13.01;36.96
80164;BME280;70071;55.130;61.268;2024-01-06T07:45:41;98520.50;;;-12.85;37.98
80164;BME280;70071;55.130;61.268;2024-01-06T07:48:07;98536.94;;;-12.67;37.25
80164;BME280;70071;55.130;61.268;2024-01-06T07:50:33;98574.63;;;-12.47;36.91
80164;BME280;70071;55.130;61.268;2024-01-06T07:52:59;98549.56;;;-12.63;37.69
80164;BME280;70071;55.130;61.268;2024-01-06T07:55:25;98473.19;;;-12.97;37.56
80164;BME280;70071;55.130;61.268;2024-01-06T07:57:54;98556.09;;;-12.29;37.90
80164;BME280;70071;55.130;61.268;2024-01-06T08:00:20;98589.00;;;-10.37;35.53
80164;BME280;70071;55.130;61.268;2024-01-06T08:02:46;98471.47;;;-10.47;34.16
80164;BME280;70071;55.130;61.268;2024-01-06T08:05:12;98534.44;;;-9.82;33.94
80164;BME280;70071;55.130;61.268;2024-01-06T08:07:38;98534.94;;;-9.54;33.55
80164;BME280;70071;55.130;61.268;2024-01-06T08:10:05;98489.97;;;-9.63;32.64
80164;BME280;70071;55.130;61.268;2024-01-06T08:12:31;98587.66;;;-8.90;32.44
80164;BME280;70071;55.130;61.268;2024-01-06T08:14:57;98527.06;;;-9.13;32.13
80164;BME280;70071;55.130;61.268;2024-01-06T08:17:23;98533.88;;;-8.95;31.62
80164;BME280;70071;55.130;61.268;2024-01-06T08:19:49;98477.84;;;-9.05;31.42
80164;BME280;70071;55.130;61.268;2024-01-06T08:22:15;98528.72;;;-8.76;31.58
80164;BME280;70071;55.130;61.268;2024-01-06T08:24:41;98494.88;;;-9.03;31.55
80164;BME280;70071;55.130;61.268;2024-01-06T08:27:07;98554.28;;;-8.55;31.10
80164;BME280;70071;55.130;61.268;2024-01-06T08:29:33;98509.78;;;-8.92;32.05
80164;BME280;70071;55.130;61.268;2024-01-06T08:32:00;98485.50;;;-9.04;32.06
80164;BME280;70071;55.130;61.268;2024-01-06T08:34:26;98571.22;;;-8.51;33.01
80164;BME280;70071;55.130;61.268;2024-01-06T08:36:53;98583.53;;;-8.40;32.37
80164;BME280;70071;55.130;61.268;2024-01-06T08:39:19;98581.78;;;-8.40;33.03
80164;BME280;70071;55.130;61.268;2024-01-06T08:41:45;98538.84;;;-8.55;33.73
80164;BME280;70071;55.130;61.268;2024-01-06T08:44:13;98504.88;;;-8.62;33.53
80164;BME280;70071;55.130;61.268;2024-01-06T08:46:40;98476.75;;;-8.65;33.87
80164;BME280;70071;55.130;61.268;2024-01-06T08:49:06;98507.66;;;-9.95;36.49
80164;BME280;70071;55.130;61.268;2024-01-06T08:51:32;98527.91;;;-10.28;37.86
80164;BME280;70071;55.130;61.268;2024-01-06T08:53:58;98482.81;;;-10.74;37.34
80164;BME280;70071;55.130;61.268;2024-01-06T08:56:24;98446.97;;;-10.75;38.75
80164;BME280;70071;55.130;61.268;2024-01-06T08:58:50;98555.78;;;-10.00;38.51
80164;BME280;70071;55.130;61.268;2024-01-06T09:01:16;98531.53;;;-10.13;39.23
80164;BME280;70071;55.130;61.268;2024-01-06T09:03:42;98497.75;;;-10.23;38.15
80164;BME280;70071;55.130;61.268;2024-01-06T09:06:08;98507.78;;;-10.17;38.99
80164;BME280;70071;55.130;61.268;2024-01-06T09:08:34;98529.31;;;-9.82;38.10
80164;BME280;70071;55.130;61.268;2024-01-06T09:11:00;98503.09;;;-9.88;38.74
80164;BME280;70071;55.130;61.268;2024-01-06T09:13:26;98518.56;;;-9.71;38.37
80164;BME280;70071;55.130;61.268;2024-01-06T09:15:52;98515.44;;;-9.58;37.95
80164;BME280;70071;55.130;61.268;2024-01-06T09:18:18;98547.09;;;-9.39;38.18
80164;BME280;70071;55.130;61.268;2024-01-06T09:20:44;98528.47;;;-9.25;37.65
80164;BME280;70071;55.130;61.268;2024-01-06T09:23:13;98537.09;;;-9.26;38.04
80164;BME280;70071;55.130;61.268;2024-01-06T09:25:39;98504.13;;;-9.54;37.70
80164;BME280;70071;55.130;61.268;2024-01-06T09:28:08;98526.38;;;-9.36;37.94
80164;BME280;70071;55.130;61.268;2024-01-06T09:30:34;98532.63;;;-9.22;37.86
80164;BME280;70071;55.130;61.268;2024-01-06T09:33:00;98511.41;;;-9.26;38.53
80164;BME280;70071;55.130;61.268;2024-01-06T09:35:28;98513.53;;;-9.17;38.53
80164;BME280;70071;55.130;61.268;2024-01-06T09:37:54;98550.84;;;-8.90;39.56
80164;BME280;70071;55.130;61.268;2024-01-06T09:40:22;98518.50;;;-8.77;37.75
80164;BME280;70071;55.130;61.268;2024-01-06T09:42:50;98501.00;;;-6.90;34.47
80164;BME280;70071;55.130;61.268;2024-01-06T09:45:16;98541.19;;;-5.82;32.65
80164;BME280;70071;55.130;61.268;2024-01-06T09:47:49;98499.72;;;-5.66;31.61
80164;BME280;70071;55.130;61.268;2024-01-06T09:50:18;98536.69;;;-5.23;30.91
80164;BME280;70071;55.130;61.268;2024-01-06T09:52:46;98524.38;;;-5.05;30.33
80164;BME280;70071;55.130;61.268;2024-01-06T09:55:23;98520.16;;;-4.93;30.36
80164;BME280;70071;55.130;61.268;2024-01-06T09:57:52;98513.44;;;-4.95;30.22
80164;BME280;70071;55.130;61.268;2024-01-06T10:00:19;98469.16;;;-5.18;29.55
80164;BME280;70071;55.130;61.268;2024-01-06T10:02:48;98506.44;;;-4.80;29.31
80164;BME280;70071;55.130;61.268;2024-01-06T10:05:16;98463.78;;;-5.15;28.87
80164;BME280;70071;55.130;61.268;2024-01-06T10:07:43;98527.38;;;-4.71;29.41
80164;BME280;70071;55.130;61.268;2024-01-06T10:10:10;98470.13;;;-5.06;29.02
80164;BME280;70071;55.130;61.268;2024-01-06T10:12:40;98538.59;;;-4.57;29.00
80164;BME280;70071;55.130;61.268;2024-01-06T10:15:09;98488.72;;;-4.87;29.14
80164;BME280;70071;55.130;61.268;2024-01-06T10:17:39;98529.59;;;-4.65;29.27
80164;BME280;70071;55.130;61.268;2024-01-06T10:20:10;98523.47;;;-4.64;29.13
80164;BME280;70071;55.130;61.268;2024-01-06T10:22:37;98486.34;;;-4.90;29.11
80164;BME280;70071;55.130;61.268;2024-01-06T10:25:07;98526.25;;;-4.67;29.23
80164;BME280;70071;55.130;61.268;2024-01-06T10:27:40;98522.78;;;-4.80;28.88
80164;BME280;70071;55.130;61.268;2024-01-06T10:30:07;98532.81;;;-4.88;29.07
80164;BME280;70071;55.130;61.268;2024-01-06T10:32:34;98536.72;;;-4.95;29.27
80164;BME280;70071;55.130;61.268;2024-01-06T10:35:02;98514.28;;;-5.22;28.78
80164;BME280;70071;55.130;61.268;2024-01-06T10:37:32;98533.34;;;-5.10;29.18
80164;BME280;70071;55.130;61.268;2024-01-06T10:40:11;98539.41;;;-4.97;28.85
80164;BME280;70071;55.130;61.268;2024-01-06T10:42:39;98513.97;;;-5.18;29.16
80164;BME280;70071;55.130;61.268;2024-01-06T10:45:09;98557.22;;;-4.92;29.20
80164;BME280;70071;55.130;61.268;2024-01-06T10:47:36;98542.88;;;-5.11;29.44
80164;BME280;70071;55.130;61.268;2024-01-06T10:50:03;98547.84;;;-5.08;29.55
80164;BME280;70071;55.130;61.268;2024-01-06T10:52:30;98556.00;;;-5.14;29.58
80164;BME280;70071;55.130;61.268;2024-01-06T10:54:57;98505.63;;;-5.50;29.21
80164;BME280;70071;55.130;61.268;2024-01-06T10:57:24;98539.47;;;-5.26;29.68
80164;BME280;70071;55.130;61.268;2024-01-06T10:59:52;98555.16;;;-5.14;29.51
80164;BME280;70071;55.130;61.268;2024-01-06T11:02:19;98518.53;;;-5.36;29.86
80164;BME280;70071;55.130;61.268;2024-01-06T11:04:46;98490.59;;;-5.58;29.61
80164;BME280;70071;55.130;61.268;2024-01-06T11:07:16;98552.22;;;-5.23;29.66
80164;BME280;70071;55.130;61.268;2024-01-06T11:10:04;98533.06;;;-5.62;30.28
80164;BME280;70071;55.130;61.268;2024-01-06T11:12:31;98519.50;;;-5.65;30.16
80164;BME280;70071;55.130;61.268;2024-01-06T11:14:58;98549.59;;;-5.64;30.55
80164;BME280;70071;55.130;61.268;2024-01-06T11:20:14;98577.63;;;-5.73;29.94
80164;BME280;70071;55.130;61.268;2024-01-06T11:22:40;98515.38;;;-6.11;30.68
80164;BME280;70071;55.130;61.268;2024-01-06T11:25:08;98586.25;;;-5.72;30.70
80164;BME280;70071;55.130;61.268;2024-01-06T11:27:39;98550.31;;;-5.91;30.83
80164;BME280;70071;55.130;61.268;2024-01-06T11:30:07;98517.50;;;-6.18;30.66
80164;BME280;70071;55.130;61.268;2024-01-06T11:32:35;98578.84;;;-5.78;31.27
80164;BME280;70071;55.130;61.268;2024-01-06T11:35:14;98582.81;;;-5.73;30.58
80164;BME280;70071;55.130;61.268;2024-01-06T11:43:07;98553.41;;;-6.44;32.42
80164;BME280;70071;55.130;61.268;2024-01-06T11:45:35;98583.94;;;-6.36;31.94
80164;BME280;70071;55.130;61.268;2024-01-06T11:48:04;98584.78;;;-6.35;33.21
80164;BME280;70071;55.130;61.268;2024-01-06T11:50:32;98585.22;;;-6.43;33.15
80164;BME280;70071;55.130;61.268;2024-01-06T11:52:59;98591.28;;;-6.44;32.46
80164;BME280;70071;55.130;61.268;2024-01-06T11:55:28;98591.72;;;-6.52;32.74
80164;BME280;70071;55.130;61.268;2024-01-06T11:57:55;98567.84;;;-6.71;32.63
80164;BME280;70071;55.130;61.268;2024-01-06T12:00:21;98589.31;;;-6.55;32.46
80164;BME280;70071;55.130;61.268;2024-01-06T12:02:47;98593.06;;;-6.61;33.47
80164;BME280;70071;55.130;61.268;2024-01-06T12:05:15;98589.84;;;-6.64;32.80
80164;BME280;70071;55.130;61.268;2024-01-06T12:07:52;98555.00;;;-6.87;33.07
80164;BME280;70071;55.130;61.268;2024-01-06T12:10:22;98567.81;;;-6.86;32.85
80164;BME280;70071;55.130;61.268;2024-01-06T12:12:59;98579.38;;;-6.77;34.11
80164;BME280;70071;55.130;61.268;2024-01-06T12:15:26;98536.47;;;-7.10;33.85
80164;BME280;70071;55.130;61.268;2024-01-06T12:17:53;98549.84;;;-7.03;33.55
80164;BME280;70071;55.130;61.268;2024-01-06T12:20:19;98592.53;;;-6.82;33.77
80164;BME280;70071;55.130;61.268;2024-01-06T12:22:45;98596.28;;;-6.87;33.59
80164;BME280;70071;55.130;61.268;2024-01-06T12:25:11;98575.56;;;-6.86;33.53
80164;BME280;70071;55.130;61.268;2024-01-06T12:27:42;98560.34;;;-6.90;33.16
80164;BME280;70071;55.130;61.268;2024-01-06T12:30:15;98580.38;;;-6.96;33.92
80164;BME280;70071;55.130;61.268;2024-01-06T12:32:43;98548.69;;;-7.14;33.73
80164;BME280;70071;55.130;61.268;2024-01-06T12:35:11;98599.28;;;-6.95;34.50
80164;BME280;70071;55.130;61.268;2024-01-06T12:37:38;98530.81;;;-7.33;33.85
80164;BME280;70071;55.130;61.268;2024-01-06T12:40:04;98586.63;;;-7.00;34.38
80164;BME280;70071;55.130;61.268;2024-01-06T12:42:31;98566.34;;;-7.06;33.99
80164;BME280;70071;55.130;61.268;2024-01-06T12:44:57;98556.59;;;-7.17;34.69
80164;BME280;70071;55.130;61.268;2024-01-06T12:47:22;98589.34;;;-6.87;33.89
80164;BME280;70071;55.130;61.268;2024-01-06T12:49:49;98438.53;;;-7.90;34.55